Mulberry Grove, IL

10:52 AM CST on December 25, 2014 (GMT -0600)
Blue Streaks AtmoBug Greenville | Change Station
CLOSE
Current Station
Personal Weather Station
Location: Greenville, IL
Elevation: 607 ft
Nearby Weather Stations

Elev 607 ft 38.89 °N, 89.40 °W | Updated 2 minutes ago

Clear
Clear
42.6 °F
Feels Like 40 °F
N
4.2
Wind Variable Wind from East

Today
High -- | Low -- °F
--% Chance of Precip.
Yesterday
High -- | Low -- °F
Precip. -- in
7:13 AM 4:40 PM
Waxing Crescent, 17% visible
Pressure 30.10 in
Visibility 10.0 miles
Clouds Clear
Windchill 40 °F
Dew Point 37 °F
Humidity 81%
Rainfall 0.00 in
Snow Depth Not available.
UV 2 out of 12
Pollen .50 out of 12
Air Quality Not available.
Flu Activity Not available.
METAR KSLO 251635Z AUTO 19010G17KT 10SM CLR 07/02 A3010 RMK AO2 T00650015

More Conditions Fewer Conditions

Pressure 30.10 in
Visibility 10.0 miles
Clouds Clear
Windchill 40 °F
Dew Point 37 °F
Humidity 81%
Rainfall 0.00 in
Snow Depth Not available.
UV 2 out of 12
Pollen .50 out of 12
Air Quality Not available.
Flu Activity Not available.
METAR KSLO 251635Z AUTO 19010G17KT 10SM CLR 07/02 A3010 RMK AO2 T00650015

More Conditions Fewer Conditions

10-Day Weather Forecast

Almanac

Astronomy

Dec. 25, 2014 Rise Set
Actual Time
Civil Twilight
Nautical Twilight
Astronomical Twilight
Moon
Length of Visible Light
Length of Day
Tomorrow will be .
, % of the Moon is Illuminated

Today's Extremes

State Highs State Lows

Community

WunderPhotos

Upload Photos

1,780,339 photos uploaded!

WunderBlogs® & News

Nearby

Air Quality

  Air Quality AQ Index Pollutant
Not available.

Snow Depth

Station Depth Elevation

Earthquake Activity

City Distance Mag. Time & Date
Minimum magnitude displayed is 2.5.

Coastal Water Temperatures

Place Temperature

Nearby Weather Stations